Flight Briefing for CPX663

Departure Arrival
Orlando International Airport (KMCO)
Click to view FAA NOTAMS
Miami International Airport (KMIA)
Click to view FAA NOTAMS
Departure Time Arrival Time
N/A N/A
Aircraft Distance
SF340AF 167nm
Departure METAR Arrival METAR
KMCO 221053Z 30003KT 10SM CLR 11/07 A3005 RMK AO2 SLP174 T01060067 KMIA 221053Z 33009G15KT 10SM CLR 15/12 A3005 RMK AO2 SLP176 T01500117
Suggested Route
MLB ANNEY4


View recent IFR Routes data
Notes



Charts and Procedures

Charts for KMCO
No chart available
Charts for KMIA
No chart available

Windy.com Weather Map